Time;durP1;ratioP1;P1;durP2;ratioP2;P2;SDS_P1;SDS_P2;PMS_P1;PMS_P2;Temp;Humidity;BMP_temperature;BMP_pressure;BME280_temperature;BME280_humidity;BME280_pressure;Samples;Min_cycle;Max_cycle;Signal;HPM_P1;HPM_P2
2023/07/02 00:01:04;;;;;;;8.60;5.50;;;;;;;18.47;100.00;99986.73;109246;1244;69093;-68
2023/07/02 00:03:52;;;;;;;9.90;6.00;;;;;;;18.43;99.35;99987.37;109174;1244;64282;-67
2023/07/02 00:06:21;;;;;;;8.10;6.10;;;;;;;18.37;99.90;99988.07;109244;1245;57213;-67
2023/07/02 00:08:50;;;;;;;6.60;5.60;;;;;;;18.30;100.00;99985.73;109239;1245;57728;-67
2023/07/02 00:11:19;;;;;;;9.50;5.90;;;;;;;18.34;100.00;99984.29;109188;1244;72806;-67
2023/07/02 00:13:48;;;;;;;12.30;6.40;;;;;;;18.38;100.00;99986.92;109248;1244;72163;-68
2023/07/02 00:16:17;;;;;;;8.90;5.70;;;;;;;18.29;100.00;99975.67;109245;1244;71067;-66
2023/07/02 00:18:52;;;;;;;8.80;6.40;;;;;;;18.32;99.89;99982.48;109251;1244;72960;-68
2023/07/02 00:21:21;;;;;;;9.10;5.90;;;;;;;18.22;100.00;99982.60;109251;1244;63197;-67
2023/07/02 00:23:50;;;;;;;8.00;5.80;;;;;;;18.19;100.00;99980.63;108893;1244;415427;-67
2023/07/02 00:26:18;;;;;;;8.20;5.60;;;;;;;18.14;100.00;99979.56;109244;1244;74022;-68
2023/07/02 00:28:47;;;;;;;8.20;5.50;;;;;;;18.08;100.00;99981.92;109172;1244;62017;-69
2023/07/02 00:31:16;;;;;;;8.60;5.20;;;;;;;17.99;100.00;99977.93;109406;1244;59083;-69
2023/07/02 00:33:45;;;;;;;7.70;5.80;;;;;;;17.85;100.00;99976.17;109310;1244;63449;-67
2023/07/02 00:36:14;;;;;;;7.10;5.30;;;;;;;17.81;100.00;99977.80;109354;1243;57624;-69
2023/07/02 00:38:46;;;;;;;9.10;5.50;;;;;;;17.85;100.00;99977.38;109278;1244;61286;-69
2023/07/02 00:41:16;;;;;;;8.10;5.50;;;;;;;17.78;100.00;99974.83;109333;1246;62692;-69
2023/07/02 00:43:45;;;;;;;8.70;5.70;;;;;;;17.72;100.00;99974.12;109215;1244;72271;-69
2023/07/02 00:46:22;;;;;;;6.50;5.20;;;;;;;17.68;100.00;99971.39;109352;1244;70177;-70
2023/07/02 00:48:53;;;;;;;8.60;5.90;;;;;;;17.65;100.00;99974.69;109186;1247;73785;-68
2023/07/02 00:51:26;;;;;;;12.30;6.10;;;;;;;17.62;100.00;99970.11;109297;1247;57740;-69
2023/07/02 00:53:58;;;;;;;9.00;5.80;;;;;;;17.61;100.00;99970.94;109337;1243;61189;-69
2023/07/02 00:56:27;;;;;;;8.50;6.00;;;;;;;17.60;100.00;99967.06;109319;1244;74032;-68
2023/07/02 00:58:58;;;;;;;9.30;5.80;;;;;;;17.58;100.00;99966.33;109336;1244;71977;-69
2023/07/02 01:01:28;;;;;;;9.00;5.60;;;;;;;17.58;100.00;99967.27;109178;1244;71092;-68
2023/07/02 01:04:05;;;;;;;7.20;5.60;;;;;;;17.56;100.00;99964.30;109123;1244;62947;-68
2023/07/02 01:06:36;;;;;;;10.00;6.00;;;;;;;17.58;100.00;99964.77;109141;1244;62966;-68
2023/07/02 01:09:06;;;;;;;9.60;6.50;;;;;;;17.58;100.00;99969.63;109080;1243;60740;-69
2023/07/02 01:11:46;;;;;;;9.10;6.10;;;;;;;17.60;100.00;99970.55;109138;1244;74128;-69
2023/07/02 01:14:22;;;;;;;9.80;5.60;;;;;;;17.59;100.00;99977.46;109380;1245;61883;-69
2023/07/02 01:16:52;;;;;;;9.30;6.00;;;;;;;17.59;100.00;99973.06;109313;1244;70156;-68
2023/07/02 01:19:32;;;;;;;9.20;5.80;;;;;;;17.58;100.00;99969.94;109280;1244;63995;-67
2023/07/02 01:22:01;;;;;;;8.60;5.90;;;;;;;17.56;100.00;99972.42;109231;1244;61803;-68
2023/07/02 01:24:30;;;;;;;9.90;5.70;;;;;;;17.55;100.00;99972.92;109064;1248;57482;-68
2023/07/02 01:27:01;;;;;;;7.60;5.50;;;;;;;17.54;100.00;99972.63;109238;1244;62253;-68
2023/07/02 01:29:30;;;;;;;8.90;6.10;;;;;;;17.47;100.00;99970.95;109294;1244;71184;-71
2023/07/02 01:31:59;;;;;;;8.40;5.90;;;;;;;17.41;100.00;99968.93;109407;1245;68136;-69
2023/07/02 01:34:28;;;;;;;6.50;5.50;;;;;;;17.35;100.00;99966.67;109369;1243;74408;-69
2023/07/02 01:36:57;;;;;;;6.30;5.50;;;;;;;17.29;100.00;99961.98;109162;1250;57764;-68
2023/07/02 01:39:26;;;;;;;11.20;5.90;;;;;;;17.19;100.00;99963.23;109456;1244;57784;-68
2023/07/02 01:42:07;;;;;;;10.80;5.60;;;;;;;17.10;100.00;99970.00;109482;1244;73624;-69
2023/07/02 01:44:37;;;;;;;7.70;6.30;;;;;;;17.03;100.00;99970.12;109459;1244;62154;-69
2023/07/02 01:47:06;;;;;;;9.80;6.20;;;;;;;16.95;100.00;99966.06;109207;1250;59329;-68
2023/07/02 01:49:36;;;;;;;7.50;5.80;;;;;;;16.87;100.00;99964.96;109402;1247;62436;-69
2023/07/02 01:52:05;;;;;;;9.70;6.70;;;;;;;16.84;100.00;99967.41;109277;1247;62290;-67
2023/07/02 01:54:36;;;;;;;12.10;6.10;;;;;;;16.85;100.00;99968.93;109410;1245;61556;-69
2023/07/02 01:57:05;;;;;;;9.00;6.00;;;;;;;16.84;100.00;99967.98;109388;1244;63589;-68
2023/07/02 01:59:34;;;;;;;6.90;6.00;;;;;;;16.84;100.00;99968.01;109316;1243;61717;-68
2023/07/02 02:02:03;;;;;;;7.90;6.00;;;;;;;16.82;100.00;99971.38;109236;1244;70587;-69
2023/07/02 02:04:32;;;;;;;10.70;6.30;;;;;;;16.78;100.00;99970.10;109449;1244;73474;-68
2023/07/02 02:07:00;;;;;;;9.60;6.20;;;;;;;16.76;100.00;99969.95;109469;1245;62303;-69
2023/07/02 02:09:32;;;;;;;11.20;6.30;;;;;;;16.74;100.00;99971.60;109348;1247;57757;-68
2023/07/02 02:12:01;;;;;;;9.40;6.20;;;;;;;16.76;100.00;99972.21;109455;1244;73587;-68
2023/07/02 02:14:29;;;;;;;9.70;5.80;;;;;;;16.72;100.00;99972.48;109360;1244;72481;-67
2023/07/02 02:16:59;;;;;;;6.40;5.80;;;;;;;16.68;100.00;99969.98;109456;1244;70820;-67
2023/07/02 02:19:28;;;;;;;8.90;6.30;;;;;;;16.64;100.00;99967.29;109358;1247;63866;-68
2023/07/02 02:21:56;;;;;;;11.20;7.00;;;;;;;16.58;100.00;99967.14;109400;1244;62594;-69
2023/07/02 02:24:25;;;;;;;8.60;6.00;;;;;;;16.55;100.00;99971.29;109516;1245;57273;-69
2023/07/02 02:26:55;;;;;;;9.80;6.30;;;;;;;16.53;100.00;99970.64;109423;1245;62007;-71
2023/07/02 02:29:23;;;;;;;7.80;6.60;;;;;;;16.51;100.00;99968.27;109497;1243;72193;-68
2023/07/02 02:31:52;;;;;;;8.90;6.20;;;;;;;16.46;100.00;99969.84;109423;1243;71066;-69
2023/07/02 02:34:21;;;;;;;14.30;7.70;;;;;;;16.45;100.00;99970.45;109388;1244;64323;-69
2023/07/02 02:36:50;;;;;;;7.30;6.30;;;;;;;16.45;100.00;99969.89;109322;1245;57518;-69
2023/07/02 02:39:19;;;;;;;8.40;6.80;;;;;;;16.46;100.00;99968.98;109304;1243;60852;-69
2023/07/02 02:41:47;;;;;;;11.20;6.40;;;;;;;16.46;100.00;99969.79;109395;1243;74180;-69
2023/07/02 02:44:18;;;;;;;7.00;6.20;;;;;;;16.56;100.00;99970.64;109303;1247;62787;-68
2023/07/02 02:46:47;;;;;;;11.50;6.80;;;;;;;16.59;100.00;99966.16;109341;1246;59903;-68
2023/07/02 02:49:16;;;;;;;7.90;6.80;;;;;;;16.56;100.00;99970.64;109393;1244;63180;-69
2023/07/02 02:51:45;;;;;;;8.20;7.10;;;;;;;16.54;100.00;99968.23;109302;1247;62341;-69
2023/07/02 02:54:13;;;;;;;9.00;6.80;;;;;;;16.51;100.00;99971.64;109246;1247;61427;-68
2023/07/02 02:56:42;;;;;;;8.50;7.30;;;;;;;16.52;100.00;99973.06;109423;1245;63483;-69
2023/07/02 02:59:11;;;;;;;10.50;7.60;;;;;;;16.55;100.00;99972.18;109324;1247;61832;-68
2023/07/02 03:01:40;;;;;;;9.10;7.20;;;;;;;16.59;100.00;99972.64;109340;1246;59034;-68
2023/07/02 03:04:09;;;;;;;12.00;6.90;;;;;;;16.62;100.00;99971.29;109327;1245;63659;-67
2023/07/02 03:06:38;;;;;;;10.60;7.20;;;;;;;16.65;100.00;99971.77;109366;1247;61961;-67
2023/07/02 03:09:06;;;;;;;11.00;6.90;;;;;;;16.72;100.00;99972.48;109319;1245;60960;-67
2023/07/02 03:11:35;;;;;;;9.10;7.40;;;;;;;16.78;100.00;99976.04;109401;1247;62969;-67
2023/07/02 03:14:04;;;;;;;7.30;6.60;;;;;;;16.79;100.00;99968.34;109402;1244;70046;-67
2023/07/02 03:16:33;;;;;;;10.00;6.70;;;;;;;16.91;100.00;99974.98;109499;1244;69368;-67
2023/07/02 03:19:02;;;;;;;9.30;6.90;;;;;;;17.00;100.00;99977.09;109443;1245;62409;-68
2023/07/02 03:21:32;;;;;;;10.60;6.80;;;;;;;17.06;100.00;99976.48;109451;1245;61943;-68
2023/07/02 03:24:00;;;;;;;12.50;6.90;;;;;;;17.13;100.00;99973.48;109446;1244;61075;-68
2023/07/02 03:26:29;;;;;;;8.10;6.60;;;;;;;17.20;100.00;99969.56;109451;1244;63913;-67
2023/07/02 03:28:58;;;;;;;9.60;7.50;;;;;;;17.29;100.00;99970.31;109450;1245;60975;-67
2023/07/02 03:31:27;;;;;;;9.10;6.70;;;;;;;17.43;100.00;99974.86;109435;1244;70568;-68
2023/07/02 03:33:55;;;;;;;10.30;6.60;;;;;;;17.55;100.00;99969.23;109447;1244;73586;-71
2023/07/02 03:36:24;;;;;;;8.20;6.50;;;;;;;17.64;100.00;99971.09;109390;1244;57535;-68
2023/07/02 03:38:53;;;;;;;10.20;7.20;;;;;;;17.76;100.00;99969.66;109415;1244;57709;-68
2023/07/02 03:41:22;;;;;;;12.10;6.70;;;;;;;17.90;100.00;99968.01;109457;1243;63965;-69
2023/07/02 03:43:51;;;;;;;10.10;7.10;;;;;;;18.05;100.00;99967.42;109437;1245;71743;-69
2023/07/02 03:46:20;;;;;;;13.00;7.10;;;;;;;18.18;100.00;99965.61;109369;1244;69954;-68
2023/07/02 03:48:49;;;;;;;8.90;7.20;;;;;;;18.32;100.00;99963.48;109302;1244;64611;-69
2023/07/02 03:51:18;;;;;;;9.90;6.40;;;;;;;18.45;100.00;99968.27;109386;1245;62721;-69
2023/07/02 03:53:46;;;;;;;9.80;7.90;;;;;;;18.59;100.00;99971.30;109442;1243;60616;-69
2023/07/02 03:56:15;;;;;;;9.60;8.00;;;;;;;18.71;100.00;99969.63;109445;1244;63582;-68
2023/07/02 03:58:44;;;;;;;10.30;7.00;;;;;;;18.86;100.00;99973.55;109374;1244;61000;-69
2023/07/02 04:01:13;;;;;;;8.70;7.20;;;;;;;18.99;100.00;99970.69;109435;1243;70215;-69
2023/07/02 04:03:52;;;;;;;10.30;7.60;;;;;;;19.12;100.00;99972.35;109360;1244;63638;-69
2023/07/02 04:06:21;;;;;;;11.00;7.80;;;;;;;19.28;100.00;99974.31;109365;1244;62172;-69
2023/07/02 04:08:50;;;;;;;11.10;7.10;;;;;;;19.40;100.00;99969.81;109340;1244;57746;-68
2023/07/02 04:11:19;;;;;;;11.10;7.50;;;;;;;19.57;100.00;99972.58;109538;1244;62981;-68
2023/07/02 04:13:48;;;;;;;9.60;6.50;;;;;;;19.77;100.00;99982.19;109534;1244;72316;-68
2023/07/02 04:16:16;;;;;;;11.00;6.60;;;;;;;19.89;100.00;99983.87;109508;1244;70461;-68
2023/07/02 04:18:45;;;;;;;10.90;7.40;;;;;;;20.00;100.00;99980.22;109510;1244;63744;-68
2023/07/02 04:21:14;;;;;;;7.70;6.40;;;;;;;20.11;100.00;99976.58;109522;1245;57215;-68
2023/07/02 04:23:43;;;;;;;12.80;6.80;;;;;;;20.19;100.00;99977.86;109565;1244;59637;-68
2023/07/02 04:26:12;;;;;;;8.80;6.40;;;;;;;20.27;100.00;99975.04;109472;1244;62502;-67
2023/07/02 04:29:01;;;;;;;11.30;7.60;;;;;;;20.39;100.00;99973.45;109358;1244;71328;-69
2023/07/02 04:31:30;;;;;;;11.40;6.80;;;;;;;20.51;100.00;99971.34;109267;1244;70572;-74
2023/07/02 04:33:59;;;;;;;8.10;6.60;;;;;;;20.63;100.00;99972.11;109217;1244;73657;-68
2023/07/02 04:36:28;;;;;;;9.90;7.00;;;;;;;20.70;98.72;99969.34;109225;1245;63300;-68
2023/07/02 04:38:57;;;;;;;8.20;6.80;;;;;;;20.81;97.65;99966.39;109227;1244;60886;-67
2023/07/02 04:41:27;;;;;;;9.10;7.10;;;;;;;20.92;97.27;99964.81;109217;1244;73308;-68
2023/07/02 04:43:56;;;;;;;11.80;7.50;;;;;;;21.01;96.14;99970.66;109188;1244;72567;-70
2023/07/02 04:46:24;;;;;;;12.10;7.30;;;;;;;21.04;94.72;99974.11;109212;1244;69490;-68
2023/07/02 04:48:53;;;;;;;11.80;9.80;;;;;;;21.06;94.20;99976.81;109209;1245;73653;-68
2023/07/02 04:51:22;;;;;;;12.50;10.70;;;;;;;21.23;93.93;99973.91;109193;1246;60755;-70
2023/07/02 04:53:51;;;;;;;17.30;11.00;;;;;;;21.35;93.55;99969.42;109258;1243;57180;-68
2023/07/02 04:56:20;;;;;;;11.80;10.30;;;;;;;21.48;92.91;99966.23;109433;1243;61995;-67
2023/07/02 04:58:48;;;;;;;13.40;8.80;;;;;;;21.56;92.29;99967.02;109450;1243;71477;-67
2023/07/02 05:01:17;;;;;;;8.70;7.50;;;;;;;21.62;91.42;99966.39;109416;1244;59416;-67
2023/07/02 05:03:46;;;;;;;11.80;8.10;;;;;;;21.74;91.35;99967.48;109488;1244;63678;-67
2023/07/02 05:06:15;;;;;;;10.10;7.60;;;;;;;21.82;90.55;99970.41;109472;1244;59173;-67
2023/07/02 05:08:43;;;;;;;15.00;7.60;;;;;;;21.90;90.14;99969.89;109449;1243;61066;-67
2023/07/02 05:11:12;;;;;;;16.50;7.00;;;;;;;22.01;89.91;99969.20;109481;1243;63285;-67
2023/07/02 05:13:41;;;;;;;12.40;7.90;;;;;;;22.13;89.84;99970.46;109483;1243;60660;-69
2023/07/02 05:16:10;;;;;;;13.00;7.10;;;;;;;22.22;87.74;99965.89;109463;1243;70518;-69
2023/07/02 05:18:39;;;;;;;8.20;6.40;;;;;;;22.28;86.62;99966.54;109425;1243;62857;-67
2023/07/02 05:21:08;;;;;;;10.60;6.50;;;;;;;22.38;85.70;99966.91;109297;1243;57667;-67
2023/07/02 05:23:37;;;;;;;9.00;6.50;;;;;;;22.49;84.84;99971.77;109335;1243;60363;-67
2023/07/02 05:26:05;;;;;;;10.40;6.50;;;;;;;22.65;84.63;99972.69;109309;1243;72600;-68
2023/07/02 05:28:34;;;;;;;9.10;6.50;;;;;;;22.78;83.76;99972.75;109408;1244;61967;-67
2023/07/02 05:31:03;;;;;;;9.60;6.30;;;;;;;22.88;83.02;99971.73;109466;1243;68563;-69
2023/07/02 05:33:33;;;;;;;9.70;7.00;;;;;;;22.98;82.64;99975.27;109447;1243;63861;-67
2023/07/02 05:36:02;;;;;;;9.50;7.00;;;;;;;23.07;82.00;99975.58;109331;1247;61036;-69
2023/07/02 05:38:30;;;;;;;7.20;6.10;;;;;;;23.18;81.78;99976.06;109238;1244;60067;-74
2023/07/02 05:40:59;;;;;;;10.70;6.60;;;;;;;23.32;81.82;99974.90;109371;1244;63688;-69
2023/07/02 05:43:28;;;;;;;8.90;6.30;;;;;;;23.46;81.25;99973.17;109356;1246;62007;-68
2023/07/02 05:46:00;;;;;;;7.70;6.10;;;;;;;23.54;80.53;99970.73;109424;1244;70660;-70
2023/07/02 05:48:29;;;;;;;9.70;6.50;;;;;;;23.73;81.07;99969.77;109336;1247;74427;-69
2023/07/02 05:50:58;;;;;;;7.60;5.30;;;;;;;23.88;79.68;99975.81;109330;1245;61564;-69
2023/07/02 05:53:26;;;;;;;6.70;5.20;;;;;;;24.04;76.92;99978.02;109465;1244;60596;-69
2023/07/02 05:55:55;;;;;;;6.20;5.00;;;;;;;24.09;75.80;99976.25;109441;1243;73864;-69
2023/07/02 05:58:24;;;;;;;16.10;9.40;;;;;;;24.18;75.39;99972.70;109464;1243;61922;-69
2023/07/02 06:01:10;;;;;;;15.40;10.60;;;;;;;24.28;75.36;99971.88;109453;1244;59330;-69
2023/07/02 06:03:39;;;;;;;8.30;6.10;;;;;;;24.48;73.55;99971.93;109415;1244;62557;-69
2023/07/02 06:06:08;;;;;;;7.00;5.30;;;;;;;24.54;72.98;99973.60;109426;1244;57822;-69
2023/07/02 06:08:38;;;;;;;7.40;4.60;;;;;;;24.59;73.21;99974.01;109547;1244;57728;-68
2023/07/02 06:11:07;;;;;;;6.80;5.30;;;;;;;24.71;72.81;99974.54;109315;1243;63932;-70
2023/07/02 06:13:36;;;;;;;8.10;5.60;;;;;;;24.78;72.45;99973.86;109333;1247;61107;-69
2023/07/02 06:16:04;;;;;;;8.60;5.50;;;;;;;24.94;71.24;99976.80;109529;1243;61426;-71
2023/07/02 06:18:33;;;;;;;6.50;4.40;;;;;;;25.01;72.00;99979.02;109416;1243;64075;-70
2023/07/02 06:21:02;;;;;;;5.80;5.10;;;;;;;25.19;70.63;99979.79;109489;1244;58423;-70
2023/07/02 06:23:41;;;;;;;7.30;5.00;;;;;;;25.28;69.44;99977.31;109499;1243;58289;-70
2023/07/02 06:26:10;;;;;;;5.70;5.10;;;;;;;25.32;69.76;99979.14;109320;1243;63007;-70
2023/07/02 06:28:39;;;;;;;5.80;5.00;;;;;;;25.47;68.96;99983.35;109486;1243;60817;-70
2023/07/02 06:31:08;;;;;;;7.70;5.20;;;;;;;25.53;67.78;99982.98;109368;1243;59801;-71
2023/07/02 06:33:40;;;;;;;6.60;4.90;;;;;;;25.51;68.60;99980.58;109465;1243;73515;-70
2023/07/02 06:36:09;;;;;;;8.00;6.00;;;;;;;25.63;68.19;99970.35;109456;1243;58478;-71
2023/07/02 06:38:41;;;;;;;5.80;4.80;;;;;;;25.73;67.92;99970.31;109497;1243;60232;-71
2023/07/02 06:41:10;;;;;;;7.00;5.20;;;;;;;25.86;67.70;99970.95;109536;1243;65691;-75
2023/07/02 06:43:39;;;;;;;7.50;5.00;;;;;;;26.01;67.82;99970.67;109445;1242;72876;-71
2023/07/02 06:46:11;;;;;;;8.40;5.40;;;;;;;26.17;66.85;99966.17;109459;1243;70634;-72
2023/07/02 06:48:41;;;;;;;7.80;5.40;;;;;;;26.15;66.98;99964.36;109400;1243;74046;-68
2023/07/02 06:51:12;;;;;;;6.40;4.40;;;;;;;26.23;67.62;99962.27;109506;1244;58106;-69
2023/07/02 06:53:41;;;;;;;7.80;5.60;;;;;;;26.47;66.27;99962.05;109518;1244;61248;-70
2023/07/02 06:56:11;;;;;;;7.70;5.00;;;;;;;26.43;65.75;99957.73;109464;1243;64294;-74
2023/07/02 06:58:45;;;;;;;5.80;4.50;;;;;;;26.53;65.63;99948.63;109339;1244;71523;-77
2023/07/02 07:01:14;;;;;;;7.80;5.00;;;;;;;26.80;64.82;99956.13;109504;1244;60170;-71
2023/07/02 07:03:43;;;;;;;8.40;5.30;;;;;;;26.98;63.75;99960.97;109422;1245;63398;-71
2023/07/02 07:06:12;;;;;;;9.30;5.20;;;;;;;27.03;64.26;99959.15;109466;1245;57718;-74
2023/07/02 07:08:41;;;;;;;5.70;4.40;;;;;;;27.21;62.45;99959.56;109511;1243;57751;-74
2023/07/02 07:11:10;;;;;;;5.70;4.30;;;;;;;27.32;60.32;99959.14;109517;1244;63763;-78
2023/07/02 07:13:39;;;;;;;5.60;4.60;;;;;;;27.30;59.58;99956.97;109407;1243;71484;-73
2023/07/02 07:16:07;;;;;;;5.80;4.70;;;;;;;27.23;60.23;99952.86;109347;1243;70971;-74
2023/07/02 07:18:36;;;;;;;7.10;5.00;;;;;;;27.32;60.44;99957.16;109331;1243;63032;-73
2023/07/02 07:21:05;;;;;;;5.40;4.40;;;;;;;27.47;58.85;99955.56;109366;1244;58335;-73
2023/07/02 07:23:34;;;;;;;6.10;4.50;;;;;;;27.44;58.82;99954.39;109313;1243;61438;-73
2023/07/02 07:26:02;;;;;;;6.80;5.00;;;;;;;27.25;59.32;99951.77;109266;1243;74768;-73
2023/07/02 07:28:31;;;;;;;5.60;4.60;;;;;;;27.50;59.44;99949.40;109289;1244;62082;-73
2023/07/02 07:31:00;;;;;;;4.90;4.20;;;;;;;27.73;59.07;99948.11;109164;1243;59894;-73
2023/07/02 07:33:30;;;;;;;6.10;4.30;;;;;;;27.88;58.48;99944.89;109300;1244;72407;-73
2023/07/02 07:36:00;;;;;;;5.50;3.90;;;;;;;28.03;57.35;99945.47;109327;1243;58353;-72
2023/07/02 07:38:29;;;;;;;5.60;4.20;;;;;;;28.12;55.53;99947.81;109221;1243;58247;-72
2023/07/02 07:40:58;;;;;;;5.80;4.40;;;;;;;28.08;55.94;99948.33;109355;1243;65551;-72
2023/07/02 07:43:26;;;;;;;6.60;3.50;;;;;;;28.16;56.05;99947.88;109304;1243;72505;-72
2023/07/02 07:45:55;;;;;;;6.10;4.80;;;;;;;28.36;55.31;99945.52;109482;1244;59546;-72
2023/07/02 07:48:24;;;;;;;5.20;4.20;;;;;;;28.49;54.00;99947.42;109468;1243;62645;-72
2023/07/02 07:50:53;;;;;;;4.90;4.00;;;;;;;28.52;54.50;99945.91;109444;1244;57782;-72
2023/07/02 07:53:22;;;;;;;7.50;4.50;;;;;;;28.56;54.11;99945.42;109445;1243;60910;-72
2023/07/02 07:55:51;;;;;;;6.40;4.00;;;;;;;28.65;53.97;99945.07;109403;1243;75078;-72
2023/07/02 07:58:20;;;;;;;5.30;3.90;;;;;;;28.75;54.41;99944.94;109513;1243;72571;-73
2023/07/02 08:00:48;;;;;;;5.60;4.10;;;;;;;28.86;53.71;99941.42;109548;1243;70862;-72
2023/07/02 08:03:18;;;;;;;4.50;3.70;;;;;;;28.94;52.37;99939.72;109392;1244;63622;-73
2023/07/02 08:05:47;;;;;;;5.10;3.60;;;;;;;28.99;51.09;99938.18;109505;1244;61311;-72
2023/07/02 08:08:15;;;;;;;5.10;3.50;;;;;;;29.05;51.30;99937.61;109533;1243;58441;-73
2023/07/02 08:10:45;;;;;;;5.30;3.50;;;;;;;29.04;51.31;99940.22;109527;1244;64297;-72
2023/07/02 08:13:14;;;;;;;4.90;3.50;;;;;;;29.04;51.37;99934.20;109462;1245;60713;-73
2023/07/02 08:15:43;;;;;;;4.70;3.90;;;;;;;29.19;51.71;99938.61;109432;1245;60727;-72
2023/07/02 08:18:13;;;;;;;3.70;3.30;;;;;;;29.33;50.48;99937.33;109457;1243;73887;-73
2023/07/02 08:20:42;;;;;;;4.00;3.40;;;;;;;29.36;50.32;99938.85;109374;1247;57829;-73
2023/07/02 08:23:11;;;;;;;5.00;3.30;;;;;;;29.44;49.85;99946.80;109248;1243;61315;-74
2023/07/02 08:25:40;;;;;;;3.90;3.20;;;;;;;29.54;48.24;99943.32;109295;1243;74009;-73
2023/07/02 08:28:09;;;;;;;5.90;3.50;;;;;;;29.48;48.94;99942.63;109298;1243;62456;-72
2023/07/02 08:30:38;;;;;;;4.60;3.40;;;;;;;29.52;49.30;99939.85;109293;1243;60822;-72
2023/07/02 08:33:07;;;;;;;4.80;3.20;;;;;;;29.58;48.69;99942.43;109520;1245;63175;-73
2023/07/02 08:35:36;;;;;;;5.80;3.20;;;;;;;29.55;48.02;99945.27;109485;1245;60527;-73
2023/07/02 08:38:05;;;;;;;4.60;3.40;;;;;;;29.62;47.59;99943.77;109519;1245;58373;-71
2023/07/02 08:40:34;;;;;;;6.80;3.70;;;;;;;29.53;47.97;99940.66;109550;1243;74211;-73
2023/07/02 08:43:03;;;;;;;4.80;3.50;;;;;;;29.55;48.57;99939.28;109376;1243;72192;-73
2023/07/02 08:45:33;;;;;;;4.30;2.90;;;;;;;29.50;48.67;99944.28;109542;1243;59855;-73
2023/07/02 08:48:02;;;;;;;5.00;3.40;;;;;;;29.73;48.14;99945.98;109302;1247;63337;-73
2023/07/02 08:50:31;;;;;;;4.80;3.50;;;;;;;29.94;47.89;99939.48;109490;1243;58390;-73
2023/07/02 08:53:00;;;;;;;5.00;3.30;;;;;;;29.94;47.14;99939.86;109528;1243;57679;-73
2023/07/02 08:55:29;;;;;;;5.30;3.80;;;;;;;29.73;47.65;99940.96;109493;1245;63808;-73
2023/07/02 08:57:59;;;;;;;6.50;4.10;;;;;;;29.87;47.77;99935.75;109495;1244;62399;-73
2023/07/02 09:00:31;;;;;;;5.00;3.80;;;;;;;30.08;48.57;99937.08;109529;1245;60009;-73
2023/07/02 09:03:11;;;;;;;4.30;3.60;;;;;;;30.51;47.04;99937.53;109531;1243;74244;-72
2023/07/02 09:05:52;;;;;;;5.50;4.10;;;;;;;30.20;47.36;99934.85;109474;1244;60864;-72
2023/07/02 09:08:28;;;;;;;4.40;3.40;;;;;;;30.31;45.99;99935.31;109397;1247;57738;-73
2023/07/02 09:11:11;;;;;;;4.50;3.80;;;;;;;30.45;45.18;99936.90;109437;1247;63062;-72
2023/07/02 09:14:00;;;;;;;5.00;3.40;;;;;;;30.54;44.91;99932.54;109438;1247;61951;-73
2023/07/02 09:16:32;;;;;;;7.00;5.00;;;;;;;30.73;44.89;99934.70;109504;1243;69731;-73
2023/07/02 09:19:09;;;;;;;6.80;5.20;;;;;;;30.98;43.95;99930.98;109407;1247;62969;-73
2023/07/02 09:21:42;;;;;;;4.10;3.60;;;;;;;31.03;43.71;99929.88;109198;1247;58270;-73
2023/07/02 09:24:23;;;;;;;3.90;3.00;;;;;;;31.09;43.53;99932.66;109392;1244;58593;-72
2023/07/02 09:26:55;;;;;;;5.60;3.40;;;;;;;30.99;43.73;99931.75;109307;1243;74620;-73
2023/07/02 09:29:30;;;;;;;4.20;3.20;;;;;;;30.95;44.57;99929.42;109359;1243;61201;-73
2023/07/02 09:32:09;;;;;;;5.40;4.00;;;;;;;31.04;44.91;99924.27;109352;1247;60536;-73
2023/07/02 09:34:41;;;;;;;6.10;3.70;;;;;;;31.06;44.25;99923.21;109332;1243;73855;-73
2023/07/02 09:37:10;;;;;;;5.40;3.70;;;;;;;31.16;43.63;99922.86;109413;1245;60714;-74
2023/07/02 09:39:39;;;;;;;4.60;3.30;;;;;;;31.27;43.35;99915.30;109523;1243;57815;-73
2023/07/02 09:42:10;;;;;;;3.90;3.00;;;;;;;31.64;42.97;99916.60;109507;1244;62787;-73
2023/07/02 09:44:40;;;;;;;5.30;3.30;;;;;;;31.82;42.81;99916.73;109480;1243;62545;-73
2023/07/02 09:47:11;;;;;;;3.30;2.80;;;;;;;32.04;41.56;99915.59;109419;1243;61007;-73
2023/07/02 09:49:47;;;;;;;5.00;3.70;;;;;;;31.96;40.73;99914.03;109518;1243;65695;-73
2023/07/02 09:52:17;;;;;;;4.00;3.30;;;;;;;31.60;41.36;99910.33;109499;1244;58302;-71
2023/07/02 09:54:47;;;;;;;4.30;3.50;;;;;;;31.72;40.95;99908.46;109376;1243;57741;-73
2023/07/02 09:57:16;;;;;;;5.20;3.60;;;;;;;31.73;41.17;99904.95;109417;1243;73296;-73
2023/07/02 09:59:45;;;;;;;4.20;3.80;;;;;;;31.79;40.82;99905.42;109379;1243;72689;-73
2023/07/02 10:02:14;;;;;;;4.40;3.50;;;;;;;31.94;40.52;99907.77;109388;1243;59572;-73
2023/07/02 10:04:54;;;;;;;4.50;3.40;;;;;;;31.90;40.00;99910.31;109354;1243;63766;-73
2023/07/02 10:07:34;;;;;;;4.70;3.50;;;;;;;32.09;39.51;99906.02;109367;1243;58317;-73
2023/07/02 10:10:04;;;;;;;7.00;3.90;;;;;;;31.78;39.30;99900.19;109494;1243;58308;-72
2023/07/02 10:12:32;;;;;;;3.70;3.30;;;;;;;31.37;39.47;99900.44;109481;1243;73514;-73
2023/07/02 10:15:01;;;;;;;4.40;3.20;;;;;;;31.49;39.33;99904.77;109527;1243;61398;-72
2023/07/02 10:17:32;;;;;;;4.30;3.20;;;;;;;31.69;39.70;99907.42;109498;1243;60032;-73
2023/07/02 10:20:07;;;;;;;5.60;3.20;;;;;;;31.95;39.53;99902.59;109520;1243;72999;-72
2023/07/02 10:23:04;;;;;;;4.60;4.00;;;;;;;31.88;39.08;99898.08;109435;1244;58314;-72
2023/07/02 10:25:38;;;;;;;4.60;3.20;;;;;;;31.85;39.69;99903.11;109508;1243;57756;-72
2023/07/02 10:28:22;;;;;;;6.80;4.10;;;;;;;31.91;38.68;99901.60;109351;1243;63606;-72
2023/07/02 10:30:52;;;;;;;6.60;4.20;;;;;;;31.82;38.88;99899.83;109530;1243;72089;-72
2023/07/02 10:33:21;;;;;;;4.00;3.00;;;;;;;32.03;38.70;99904.73;109422;1243;70912;-73
2023/07/02 10:35:50;;;;;;;4.80;4.00;;;;;;;32.60;38.94;99901.02;109541;1243;73459;-72
2023/07/02 10:38:24;;;;;;;6.80;3.60;;;;;;;32.64;39.31;99900.73;109430;1246;61895;-73
2023/07/02 10:41:00;;;;;;;4.40;3.40;;;;;;;32.97;38.60;99903.96;109420;1243;57720;-73
2023/07/02 10:43:31;;;;;;;5.20;3.80;;;;;;;33.39;38.33;99902.96;109357;1243;65884;-72
2023/07/02 10:46:02;;;;;;;8.50;3.80;;;;;;;33.69;37.41;99896.00;109318;1243;63402;-73
2023/07/02 10:48:31;;;;;;;4.60;3.30;;;;;;;34.14;36.57;99898.59;109430;1243;70242;-72
2023/07/02 10:51:10;;;;;;;5.10;3.50;;;;;;;34.21;35.78;99897.98;109520;1243;74211;-72
2023/07/02 10:53:39;;;;;;;4.30;3.40;;;;;;;34.05;35.38;99893.80;109443;1245;57788;-72
2023/07/02 10:56:15;;;;;;;5.30;3.20;;;;;;;34.85;34.45;99890.85;109478;1243;57762;-72
2023/07/02 10:58:46;;;;;;;3.90;3.30;;;;;;;34.88;34.47;99882.67;109261;1243;75155;-72
2023/07/02 11:01:25;;;;;;;6.50;3.70;;;;;;;34.87;34.42;99879.27;109400;1244;72853;-71
2023/07/02 11:04:04;;;;;;;5.20;3.30;;;;;;;34.22;34.60;99875.58;109362;1243;59427;-73
2023/07/02 11:06:33;;;;;;;5.90;3.40;;;;;;;33.81;34.73;99873.86;109484;1243;64747;-72
2023/07/02 11:09:03;;;;;;;3.20;2.90;;;;;;;34.17;34.75;99870.00;109468;1244;57791;-72
2023/07/02 11:11:32;;;;;;;4.90;3.30;;;;;;;34.31;34.94;99870.23;109489;1243;58280;-72
2023/07/02 11:14:01;;;;;;;4.00;3.60;;;;;;;34.27;34.92;99866.48;109467;1245;73796;-72
2023/07/02 11:16:29;;;;;;;6.70;4.00;;;;;;;34.15;35.60;99865.36;109375;1243;72514;-72
2023/07/02 11:19:09;;;;;;;7.30;3.80;;;;;;;33.84;35.47;99863.90;109514;1243;70068;-72
2023/07/02 11:21:38;;;;;;;6.50;4.20;;;;;;;33.25;36.38;99869.34;109382;1243;73672;-72
2023/07/02 11:24:11;;;;;;;6.00;3.60;;;;;;;33.96;35.31;99866.02;109380;1244;60830;-72
2023/07/02 11:26:41;;;;;;;4.80;3.50;;;;;;;33.85;35.28;99863.84;109417;1243;57811;-73
2023/07/02 11:29:11;;;;;;;4.80;3.60;;;;;;;33.78;35.44;99845.11;109429;1243;75338;-71
2023/07/02 11:31:40;;;;;;;5.90;3.50;;;;;;;34.50;34.57;99861.50;109450;1243;61294;-73
2023/07/02 11:34:14;;;;;;;5.20;3.70;;;;;;;35.12;33.76;99854.11;109570;1243;59992;-72